createdAt,value
2022-09-02T00:00:26.419Z,2.80
2022-09-02T00:01:26.428Z,3.20
2022-09-02T00:02:26.620Z,2.90
2022-09-02T00:03:27.007Z,2.90
2022-09-02T00:04:26.564Z,3.00
2022-09-02T00:05:26.516Z,3.10
2022-09-02T00:06:26.505Z,2.90
2022-09-02T00:07:26.525Z,2.90
2022-09-02T00:08:26.539Z,2.60
2022-09-02T00:09:26.554Z,2.40
2022-09-02T00:10:26.571Z,3.00
2022-09-02T00:11:26.589Z,3.20
2022-09-02T00:12:26.607Z,2.90
2022-09-02T00:13:26.619Z,2.90
2022-09-02T00:14:26.735Z,2.70
2022-09-02T00:15:26.653Z,2.80
2022-09-02T00:16:26.713Z,2.70
2022-09-02T00:17:26.678Z,3.00
2022-09-02T00:18:26.699Z,3.20
2022-09-02T00:19:26.711Z,3.50
2022-09-02T00:20:26.732Z,2.80
2022-09-02T00:21:26.738Z,3.20
2022-09-02T00:22:26.756Z,3.00
2022-09-02T00:23:27.429Z,3.30
2022-09-02T00:24:26.791Z,2.90
2022-09-02T00:25:26.802Z,3.10
2022-09-02T00:26:26.820Z,3.00
2022-09-02T00:27:26.833Z,3.10
2022-09-02T00:28:26.851Z,3.10
2022-09-02T00:29:26.886Z,3.00
2022-09-02T00:30:26.885Z,3.20
2022-09-02T00:31:26.954Z,3.40
2022-09-02T00:32:26.914Z,3.10
2022-09-02T00:33:26.927Z,3.10
2022-09-02T00:34:27.047Z,3.10
2022-09-02T00:35:26.968Z,3.20
2022-09-02T00:36:26.977Z,3.30
2022-09-02T00:37:26.991Z,3.10
2022-09-02T00:38:27.005Z,2.90
2022-09-02T00:39:27.020Z,3.20
2022-09-02T00:40:27.075Z,3.00
2022-09-02T00:41:27.052Z,3.10
2022-09-02T00:42:27.068Z,3.00
2022-09-02T00:43:27.089Z,3.10
2022-09-02T00:44:27.096Z,3.50
2022-09-02T00:45:27.209Z,3.10
2022-09-02T00:46:27.127Z,2.90
2022-09-02T00:47:27.144Z,3.20
2022-09-02T00:48:27.160Z,3.10
2022-09-02T00:49:27.168Z,2.70
2022-09-02T00:50:27.188Z,3.40
2022-09-02T00:51:27.204Z,3.00
2022-09-02T00:52:27.220Z,3.00
2022-09-02T00:53:27.237Z,3.20
2022-09-02T00:54:27.253Z,3.00
2022-09-02T00:55:27.262Z,3.20
2022-09-02T00:56:27.278Z,3.10
2022-09-02T00:57:27.293Z,3.30
2022-09-02T00:58:27.313Z,3.70
2022-09-02T00:59:27.324Z,3.10
2022-09-02T01:00:27.343Z,3.20
2022-09-02T01:01:27.515Z,3.00
2022-09-02T01:02:27.440Z,3.20
2022-09-02T01:03:27.385Z,3.00
2022-09-02T01:04:27.401Z,3.10
2022-09-02T01:05:27.412Z,3.10
2022-09-02T01:06:27.428Z,3.30
2022-09-02T01:07:27.446Z,2.90
2022-09-02T01:08:27.462Z,3.20
2022-09-02T01:09:27.472Z,3.10
2022-09-02T01:10:27.490Z,3.00
2022-09-02T01:11:27.503Z,3.00
2022-09-02T01:12:27.524Z,2.80
2022-09-02T01:13:27.533Z,3.10
2022-09-02T01:14:28.619Z,3.10
2022-09-02T01:15:27.568Z,3.10
2022-09-02T01:16:27.652Z,3.10
2022-09-02T01:17:27.593Z,3.30
2022-09-02T01:18:27.616Z,3.00
2022-09-02T01:19:27.625Z,2.90
2022-09-02T01:20:27.643Z,2.80
2022-09-02T01:21:27.653Z,2.80
2022-09-02T01:22:27.672Z,3.00
2022-09-02T01:23:27.683Z,3.20
2022-09-02T01:24:27.702Z,3.10
2022-09-02T01:25:27.720Z,3.10
2022-09-02T01:26:27.732Z,3.20
2022-09-02T01:27:27.743Z,2.80
2022-09-02T01:28:27.767Z,3.10
2022-09-02T01:29:27.777Z,3.20
2022-09-02T01:30:27.789Z,3.10
2022-09-02T01:31:27.921Z,3.50
2022-09-02T01:32:27.819Z,3.20
2022-09-02T01:33:27.861Z,3.20
2022-09-02T01:34:27.851Z,2.90
2022-09-02T01:35:27.867Z,2.90
2022-09-02T01:36:27.980Z,3.10
2022-09-02T01:37:27.892Z,3.10
2022-09-02T01:38:27.915Z,3.50
2022-09-02T01:39:27.924Z,3.10
2022-09-02T01:40:28.015Z,3.10
2022-09-02T01:41:27.954Z,3.40
2022-09-02T01:42:27.970Z,3.40
2022-09-02T01:43:27.987Z,3.10
2022-09-02T01:44:28.001Z,3.10
2022-09-02T01:45:28.015Z,3.10
2022-09-02T01:46:28.075Z,3.50
2022-09-02T01:47:28.047Z,3.10
2022-09-02T01:48:28.058Z,3.20
2022-09-02T01:49:28.073Z,3.30
2022-09-02T01:50:28.087Z,3.00
2022-09-02T01:51:28.102Z,2.90
2022-09-02T01:52:28.121Z,3.20
2022-09-02T01:53:28.134Z,3.50
2022-09-02T01:54:28.148Z,3.10
2022-09-02T01:55:28.172Z,3.00
2022-09-02T01:56:28.177Z,3.30
2022-09-02T01:57:28.197Z,3.20
2022-09-02T01:58:28.211Z,3.10
2022-09-02T01:59:28.224Z,3.40
2022-09-02T02:00:28.268Z,3.20
2022-09-02T02:01:28.251Z,3.20
2022-09-02T02:02:28.293Z,3.20
2022-09-02T02:03:28.284Z,3.40
2022-09-02T02:04:28.297Z,3.30
2022-09-02T02:05:28.312Z,3.00
2022-09-02T02:06:28.326Z,3.00
2022-09-02T02:07:28.344Z,3.10
2022-09-02T02:08:28.357Z,2.90
2022-09-02T02:09:28.373Z,3.40
2022-09-02T02:10:28.385Z,3.10
2022-09-02T02:11:28.405Z,3.00
2022-09-02T02:12:28.417Z,2.80
2022-09-02T02:13:28.430Z,3.40
2022-09-02T02:14:28.452Z,3.10
2022-09-02T02:16:28.551Z,3.60
2022-09-02T02:17:28.489Z,3.40
2022-09-02T02:18:28.505Z,2.90
2022-09-02T02:19:28.517Z,3.30
2022-09-02T02:20:28.533Z,3.00
2022-09-02T02:21:28.649Z,3.20
2022-09-02T02:22:28.562Z,3.00
2022-09-02T02:23:28.581Z,3.20
2022-09-02T02:24:28.593Z,3.40
2022-09-02T02:25:28.610Z,3.20
2022-09-02T02:26:28.621Z,3.20
2022-09-02T02:27:28.637Z,3.00
2022-09-02T02:28:28.663Z,3.60
2022-09-02T02:29:28.680Z,3.30
2022-09-02T02:30:28.681Z,3.20
2022-09-02T02:31:28.739Z,3.30
2022-09-02T02:32:28.710Z,3.30
2022-09-02T02:33:31.909Z,3.40
2022-09-02T02:34:28.735Z,2.80
2022-09-02T02:35:28.757Z,3.10
2022-09-02T02:36:28.768Z,3.10
2022-09-02T02:37:28.782Z,3.60
2022-09-02T02:38:28.799Z,3.10
2022-09-02T02:39:28.812Z,3.40
2022-09-02T02:40:28.943Z,3.10
2022-09-02T02:41:28.840Z,3.10
2022-09-02T02:42:28.859Z,3.20
2022-09-02T02:43:28.873Z,2.90
2022-09-02T02:44:28.888Z,3.10
2022-09-02T02:45:28.902Z,3.40
2022-09-02T02:46:28.979Z,3.60
2022-09-02T02:47:28.931Z,3.10
2022-09-02T02:48:28.944Z,3.70
2022-09-02T02:49:28.956Z,3.80
2022-09-02T02:50:28.975Z,3.30
2022-09-02T02:51:28.988Z,3.30
2022-09-02T02:52:29.006Z,3.40
2022-09-02T02:53:29.016Z,3.30
2022-09-02T02:54:29.032Z,3.50
2022-09-02T02:55:29.049Z,3.40
2022-09-02T02:56:29.065Z,3.10
2022-09-02T02:57:29.075Z,2.70
2022-09-02T02:58:29.092Z,3.30
2022-09-02T02:59:29.109Z,3.50
2022-09-02T03:00:29.118Z,3.20
2022-09-02T03:01:29.235Z,3.20
2022-09-02T03:02:29.313Z,3.10
2022-09-02T03:03:29.161Z,3.20
2022-09-02T03:04:29.177Z,3.70
2022-09-02T03:05:29.188Z,3.40
2022-09-02T03:06:29.213Z,2.90
2022-09-02T03:07:29.221Z,3.30
2022-09-02T03:08:29.237Z,3.10
2022-09-02T03:09:29.248Z,3.30
2022-09-02T03:10:29.265Z,3.10
2022-09-02T03:11:29.279Z,3.20
2022-09-02T03:12:29.294Z,3.00
2022-09-02T03:13:29.611Z,3.20
2022-09-02T03:14:29.326Z,3.00
2022-09-02T03:15:29.339Z,2.70
2022-09-02T03:16:29.479Z,3.10
2022-09-02T03:17:29.366Z,3.10
2022-09-02T03:18:29.379Z,3.40
2022-09-02T03:19:29.393Z,3.10
2022-09-02T03:20:29.409Z,3.00
2022-09-02T03:21:29.420Z,3.10
2022-09-02T03:22:29.439Z,3.00
2022-09-02T03:23:29.454Z,3.50
2022-09-02T03:24:29.470Z,3.30
2022-09-02T03:25:33.472Z,3.10
2022-09-02T03:26:29.496Z,3.40
2022-09-02T03:27:29.511Z,3.60
2022-09-02T03:28:29.520Z,3.20
2022-09-02T03:29:29.537Z,3.10
2022-09-02T03:30:29.554Z,2.80
2022-09-02T03:31:29.740Z,3.00
2022-09-02T03:32:30.670Z,3.20
2022-09-02T03:33:29.597Z,3.30
2022-09-02T03:34:29.610Z,3.30
2022-09-02T03:35:29.628Z,3.40
2022-09-02T03:36:29.641Z,3.00
2022-09-02T03:37:29.659Z,3.30
2022-09-02T03:38:29.670Z,3.20
2022-09-02T03:39:29.686Z,3.20
2022-09-02T03:40:29.776Z,3.40
2022-09-02T03:41:29.711Z,3.30
2022-09-02T03:42:29.726Z,3.50
2022-09-02T03:43:29.744Z,3.40
2022-09-02T03:44:29.855Z,3.10
2022-09-02T03:45:29.899Z,3.40
2022-09-02T03:46:29.784Z,3.10
2022-09-02T03:47:29.801Z,3.50
2022-09-02T03:48:29.810Z,3.30
2022-09-02T03:49:29.825Z,3.10
2022-09-02T03:50:29.841Z,2.80
2022-09-02T03:51:29.853Z,2.90
2022-09-02T03:52:29.870Z,3.40
2022-09-02T03:53:29.887Z,2.90
2022-09-02T03:54:29.895Z,3.20
2022-09-02T03:55:29.912Z,3.20
2022-09-02T03:56:29.927Z,3.20
2022-09-02T03:57:29.941Z,3.40
2022-09-02T03:58:29.956Z,3.20
2022-09-02T03:59:29.970Z,3.00
2022-09-02T04:00:30.000Z,3.10
2022-09-02T04:01:33.669Z,3.20
2022-09-02T04:02:30.177Z,2.90
2022-09-02T04:03:30.030Z,3.30
2022-09-02T04:04:30.039Z,3.30
2022-09-02T04:05:30.059Z,2.80
2022-09-02T04:06:32.886Z,3.20
2022-09-02T04:07:30.086Z,3.50
2022-09-02T04:08:30.102Z,3.00
2022-09-02T04:09:30.116Z,3.10
2022-09-02T04:10:30.123Z,3.50
2022-09-02T04:11:30.144Z,3.30
2022-09-02T04:12:32.491Z,3.10
2022-09-02T04:13:30.167Z,3.00
2022-09-02T04:14:30.183Z,3.60
2022-09-02T04:15:30.198Z,3.40
2022-09-02T04:16:30.246Z,3.40
2022-09-02T04:17:30.244Z,3.10
2022-09-02T04:18:30.245Z,3.60
2022-09-02T04:19:30.252Z,3.20
2022-09-02T04:20:30.272Z,3.40
2022-09-02T04:21:30.286Z,3.60
2022-09-02T04:22:30.302Z,3.30
2022-09-02T04:23:30.310Z,3.30
2022-09-02T04:24:30.327Z,3.40
2022-09-02T04:25:30.337Z,3.20
2022-09-02T04:26:30.353Z,3.20
2022-09-02T04:27:30.368Z,3.20
2022-09-02T04:28:30.383Z,3.40
2022-09-02T04:29:30.397Z,3.20
2022-09-02T04:30:30.411Z,3.00
2022-09-02T04:31:30.542Z,3.10
2022-09-02T04:32:30.444Z,2.90
2022-09-02T04:33:30.456Z,3.20
2022-09-02T04:34:30.471Z,3.50
2022-09-02T04:35:30.485Z,2.80
2022-09-02T04:36:30.928Z,3.00
2022-09-02T04:37:30.516Z,2.80
2022-09-02T04:38:30.523Z,3.20
2022-09-02T04:39:30.537Z,3.10
2022-09-02T04:40:30.618Z,3.50
2022-09-02T04:41:30.573Z,3.00
2022-09-02T04:42:30.580Z,2.90
2022-09-02T04:43:30.600Z,3.20
2022-09-02T04:44:30.612Z,2.80
2022-09-02T04:45:30.629Z,3.40
2022-09-02T04:46:34.992Z,3.10
2022-09-02T04:47:30.657Z,3.10
2022-09-02T04:48:30.669Z,3.10
2022-09-02T04:49:30.779Z,3.10
2022-09-02T04:50:30.692Z,3.00
2022-09-02T04:51:30.712Z,3.20
2022-09-02T04:52:30.725Z,3.30
2022-09-02T04:53:30.734Z,3.00
2022-09-02T04:54:30.752Z,3.10
2022-09-02T04:55:30.768Z,3.00
2022-09-02T04:56:30.781Z,3.20
2022-09-02T04:57:30.795Z,2.90
2022-09-02T04:58:30.808Z,3.00
2022-09-02T04:59:30.820Z,3.50
2022-09-02T05:00:30.839Z,3.10
2022-09-02T05:01:30.892Z,3.00
2022-09-02T05:02:30.914Z,2.90
2022-09-02T05:03:30.882Z,3.00
2022-09-02T05:04:30.893Z,3.10
2022-09-02T05:05:30.909Z,3.30
2022-09-02T05:06:30.923Z,2.70
2022-09-02T05:07:31.157Z,3.10
2022-09-02T05:08:30.949Z,3.00
2022-09-02T05:09:30.965Z,2.70
2022-09-02T05:10:30.980Z,3.00
2022-09-02T05:11:30.999Z,3.40
2022-09-02T05:12:31.011Z,3.00
2022-09-02T05:13:31.026Z,3.10
2022-09-02T05:14:31.042Z,2.90
2022-09-02T05:15:31.108Z,3.20
2022-09-02T05:16:31.062Z,3.00
2022-09-02T05:17:31.078Z,3.30
2022-09-02T05:18:31.098Z,3.30
2022-09-02T05:19:31.146Z,3.00
2022-09-02T05:20:31.134Z,2.80
2022-09-02T05:21:31.136Z,3.20
2022-09-02T05:22:31.151Z,3.20
2022-09-02T05:23:31.170Z,3.00
2022-09-02T05:24:31.181Z,3.20
2022-09-02T05:25:31.195Z,3.10
2022-09-02T05:26:31.210Z,3.20
2022-09-02T05:27:31.220Z,2.90
2022-09-02T05:28:31.238Z,3.00
2022-09-02T05:29:31.256Z,2.90
2022-09-02T05:30:31.262Z,2.90
2022-09-02T05:31:31.344Z,3.00
2022-09-02T05:32:34.425Z,2.70
2022-09-02T05:33:31.309Z,2.70
2022-09-02T05:34:31.324Z,3.10
2022-09-02T05:35:31.333Z,3.00
2022-09-02T05:36:31.354Z,3.00
2022-09-02T05:37:31.362Z,3.60
2022-09-02T05:38:31.381Z,6.70
2022-09-02T05:39:31.396Z,6.40
2022-09-02T05:40:31.453Z,4.80
2022-09-02T05:41:31.424Z,3.80
2022-09-02T05:42:31.440Z,3.30
2022-09-02T05:43:31.466Z,2.60
2022-09-02T05:44:31.465Z,3.00
2022-09-02T05:45:31.502Z,3.00
2022-09-02T05:46:31.572Z,3.10
2022-09-02T05:47:31.508Z,2.90
2022-09-02T05:48:31.530Z,2.50
2022-09-02T05:49:31.534Z,2.60
2022-09-02T05:50:31.934Z,2.80
2022-09-02T05:51:31.566Z,2.80
2022-09-02T05:52:31.579Z,2.50
2022-09-02T05:53:31.594Z,2.70
2022-09-02T05:54:31.711Z,3.20
2022-09-02T05:55:31.626Z,2.80
2022-09-02T05:56:31.639Z,2.70
2022-09-02T05:57:31.652Z,3.10
2022-09-02T05:58:31.668Z,2.80
2022-09-02T05:59:31.677Z,2.70
2022-09-02T06:00:31.693Z,2.90
2022-09-02T06:01:31.756Z,2.80
2022-09-02T06:02:31.823Z,2.90
2022-09-02T06:03:31.735Z,2.90
2022-09-02T06:04:31.748Z,3.00
2022-09-02T06:05:31.766Z,3.20
2022-09-02T06:06:31.777Z,2.90
2022-09-02T06:07:31.797Z,2.80
2022-09-02T06:08:31.812Z,2.80
2022-09-02T06:09:31.825Z,2.90
2022-09-02T06:10:31.832Z,3.10
2022-09-02T06:11:31.855Z,2.90
2022-09-02T06:12:31.862Z,3.10
2022-09-02T06:13:31.881Z,3.00
2022-09-02T06:14:31.896Z,3.10
2022-09-02T06:15:32.012Z,2.90
2022-09-02T06:16:31.935Z,2.90
2022-09-02T06:17:31.944Z,2.80
2022-09-02T06:18:31.951Z,2.90
2022-09-02T06:19:31.967Z,3.00
2022-09-02T06:20:31.979Z,2.80
2022-09-02T06:21:32.004Z,3.30
2022-09-02T06:22:32.009Z,2.80
2022-09-02T06:23:32.026Z,2.90
2022-09-02T06:24:32.040Z,3.00
2022-09-02T06:25:32.055Z,2.80
2022-09-02T06:26:32.070Z,3.10
2022-09-02T06:27:32.082Z,2.60
2022-09-02T06:28:32.095Z,2.50
2022-09-02T06:29:32.114Z,2.70
2022-09-02T06:30:32.127Z,2.50
2022-09-02T06:31:34.857Z,2.40
2022-09-02T06:32:32.154Z,2.30
2022-09-02T06:33:32.167Z,2.40
2022-09-02T06:34:32.281Z,2.50
2022-09-02T06:35:32.200Z,2.30
2022-09-02T06:36:32.214Z,2.40
2022-09-02T06:37:32.224Z,2.40
2022-09-02T06:38:32.242Z,2.00
2022-09-02T06:39:32.288Z,2.50
2022-09-02T06:40:32.338Z,2.50
2022-09-02T06:41:32.286Z,2.40
2022-09-02T06:42:32.299Z,2.60
2022-09-02T06:43:42.293Z,2.70
2022-09-02T06:44:32.585Z,2.60
2022-09-02T06:45:32.347Z,2.50
2022-09-02T06:46:32.413Z,2.40
2022-09-02T06:47:32.376Z,2.20
2022-09-02T06:48:32.388Z,2.70
2022-09-02T06:49:32.399Z,2.50
2022-09-02T06:50:32.415Z,2.60
2022-09-02T06:51:32.434Z,2.40
2022-09-02T06:52:32.447Z,2.50
2022-09-02T06:53:32.459Z,2.70
2022-09-02T06:54:32.478Z,2.70
2022-09-02T06:55:32.486Z,2.20
2022-09-02T06:56:32.505Z,2.60
2022-09-02T06:57:34.087Z,2.70
2022-09-02T06:58:32.535Z,2.70
2022-09-02T06:59:32.548Z,2.70
2022-09-02T07:00:32.561Z,2.50
2022-09-02T07:01:32.765Z,2.80
2022-09-02T07:02:32.592Z,2.60
2022-09-02T07:03:32.602Z,2.40
2022-09-02T07:04:32.618Z,2.80
2022-09-02T07:05:32.635Z,2.60
2022-09-02T07:06:32.653Z,2.50
2022-09-02T07:07:32.667Z,2.80
2022-09-02T07:08:32.677Z,2.40
2022-09-02T07:09:32.693Z,2.70
2022-09-02T07:10:32.715Z,2.40
2022-09-02T07:11:32.723Z,2.50
2022-09-02T07:12:32.736Z,2.30
2022-09-02T07:13:32.751Z,3.00
2022-09-02T07:14:32.767Z,2.50
2022-09-02T07:15:32.780Z,2.60
2022-09-02T07:16:32.838Z,2.40
2022-09-02T07:17:32.811Z,2.70
2022-09-02T07:18:32.828Z,2.60
2022-09-02T07:19:32.843Z,2.30
2022-09-02T07:20:32.860Z,2.70
2022-09-02T07:21:32.873Z,2.70
2022-09-02T07:22:32.886Z,2.50
2022-09-02T07:23:32.901Z,2.70
2022-09-02T07:24:32.915Z,2.90
2022-09-02T07:25:32.938Z,2.70
2022-09-02T07:26:32.949Z,2.50
2022-09-02T07:27:32.961Z,2.50
2022-09-02T07:28:32.976Z,2.60
2022-09-02T07:29:32.987Z,2.50
2022-09-02T07:30:33.040Z,2.40
2022-09-02T07:31:33.019Z,2.60
2022-09-02T07:32:33.034Z,2.60
2022-09-02T07:33:33.051Z,2.60
2022-09-02T07:34:33.065Z,2.90
2022-09-02T07:35:33.084Z,2.60
2022-09-02T07:36:33.102Z,2.50
2022-09-02T07:37:33.114Z,2.40
2022-09-02T07:38:33.120Z,2.40
2022-09-02T07:39:33.141Z,2.30
2022-09-02T07:40:33.233Z,2.50
2022-09-02T07:41:33.170Z,2.80
2022-09-02T07:42:33.184Z,2.70
2022-09-02T07:43:33.199Z,2.40
2022-09-02T07:44:33.332Z,2.40
2022-09-02T07:45:33.417Z,2.40
2022-09-02T07:46:33.244Z,2.40
2022-09-02T07:47:33.260Z,2.70
2022-09-02T07:48:33.277Z,2.50
2022-09-02T07:50:15.884Z,2.50
2022-09-02T07:50:33.304Z,2.40
2022-09-02T07:51:33.324Z,2.60
2022-09-02T07:52:33.337Z,2.50
2022-09-02T07:53:33.353Z,2.60
2022-09-02T07:54:33.365Z,2.70
2022-09-02T07:55:33.380Z,2.50
2022-09-02T07:56:33.391Z,2.10
2022-09-02T07:57:33.412Z,2.40
2022-09-02T07:58:33.422Z,2.50
2022-09-02T07:59:33.442Z,2.80
2022-09-02T08:00:33.459Z,2.70
2022-09-02T08:01:33.607Z,2.30
2022-09-02T08:02:33.549Z,2.30
2022-09-02T08:03:33.513Z,2.60
2022-09-02T08:04:33.517Z,2.50
2022-09-02T08:05:33.535Z,2.90
2022-09-02T08:06:34.530Z,2.30
2022-09-02T08:07:33.564Z,2.50
2022-09-02T08:08:33.578Z,2.20
2022-09-02T08:09:33.595Z,2.20
2022-09-02T08:10:33.609Z,2.40
2022-09-02T08:11:33.622Z,2.50
2022-09-02T08:12:33.642Z,2.50
2022-09-02T08:13:33.657Z,2.30
2022-09-02T08:14:33.670Z,2.70
2022-09-02T08:15:33.688Z,2.50
2022-09-02T08:16:33.757Z,2.50
2022-09-02T08:17:33.716Z,2.60
2022-09-02T08:18:33.733Z,2.50
2022-09-02T08:19:33.747Z,2.60
2022-09-02T08:20:33.760Z,2.40
2022-09-02T08:21:33.778Z,2.30
2022-09-02T08:23:37.091Z,2.50
2022-09-02T08:24:33.829Z,2.30
2022-09-02T08:25:33.842Z,2.50
2022-09-02T08:26:33.856Z,2.80
2022-09-02T08:27:33.875Z,2.50
2022-09-02T08:28:33.892Z,2.60
2022-09-02T08:29:33.905Z,2.80
2022-09-02T08:30:33.919Z,2.60
2022-09-02T08:31:33.994Z,2.60
2022-09-02T08:32:33.949Z,2.70
2022-09-02T08:33:33.967Z,2.80
2022-09-02T08:34:34.084Z,2.70
2022-09-02T08:35:33.999Z,2.20
2022-09-02T08:36:34.023Z,2.10
2022-09-02T08:37:34.031Z,2.40
2022-09-02T08:38:34.049Z,2.10
2022-09-02T08:39:34.065Z,2.40
2022-09-02T08:40:34.164Z,2.10
2022-09-02T08:41:34.115Z,2.60
2022-09-02T08:42:34.116Z,2.50
2022-09-02T08:43:34.149Z,2.60
2022-09-02T08:44:34.153Z,2.30
2022-09-02T08:45:34.234Z,2.10
2022-09-02T08:46:34.181Z,2.00
2022-09-02T08:47:34.196Z,2.50
2022-09-02T08:48:34.216Z,2.10
2022-09-02T08:49:34.226Z,2.00
2022-09-02T08:50:34.244Z,2.10
2022-09-02T08:51:37.675Z,1.90
2022-09-02T08:52:34.279Z,2.30
2022-09-02T08:53:34.289Z,2.00
2022-09-02T08:54:34.310Z,1.90
2022-09-02T08:55:34.326Z,2.10
2022-09-02T08:56:34.346Z,1.90
2022-09-02T08:57:34.361Z,2.20
2022-09-02T08:58:34.377Z,2.40
2022-09-02T08:59:34.442Z,2.10
2022-09-02T09:00:34.423Z,1.70
2022-09-02T09:01:34.462Z,2.10
2022-09-02T09:02:34.520Z,2.20
2022-09-02T09:03:34.459Z,2.00
2022-09-02T09:04:34.478Z,2.20
2022-09-02T09:05:34.492Z,2.30
2022-09-02T09:06:34.512Z,2.10
2022-09-02T09:08:34.549Z,1.90
2022-09-02T09:09:34.560Z,2.20
2022-09-02T09:10:34.581Z,2.10
2022-09-02T09:11:34.595Z,2.20
2022-09-02T09:12:34.611Z,2.00
2022-09-02T09:13:37.252Z,2.00
2022-09-02T09:14:34.647Z,2.20
2022-09-02T09:15:34.662Z,2.20
2022-09-02T09:16:34.746Z,2.40
2022-09-02T09:17:34.698Z,2.10
2022-09-02T09:18:34.712Z,2.30
2022-09-02T09:19:34.734Z,2.30
2022-09-02T09:20:34.746Z,2.10
2022-09-02T09:21:34.770Z,2.10
2022-09-02T09:22:34.786Z,2.30
2022-09-02T09:23:34.960Z,1.90
2022-09-02T09:24:34.815Z,2.10
2022-09-02T09:25:34.835Z,2.20
2022-09-02T09:26:34.852Z,2.50
2022-09-02T09:27:34.868Z,2.10
2022-09-02T09:28:34.885Z,2.30
2022-09-02T09:29:34.906Z,2.20
2022-09-02T09:30:34.927Z,2.40
2022-09-02T09:31:34.985Z,2.30
2022-09-02T09:32:34.959Z,2.10
2022-09-02T09:33:34.976Z,2.10
2022-09-02T09:34:34.990Z,2.20
2022-09-02T09:35:35.005Z,2.10
2022-09-02T09:36:35.021Z,2.30
2022-09-02T09:37:36.339Z,2.40
2022-09-02T09:38:35.056Z,2.00
2022-09-02T09:39:35.077Z,2.30
2022-09-02T09:40:35.141Z,2.10
2022-09-02T09:41:35.109Z,2.10
2022-09-02T09:42:35.127Z,2.10
2022-09-02T09:43:35.146Z,2.30
2022-09-02T09:44:35.161Z,2.00
2022-09-02T09:45:35.291Z,2.20
2022-09-02T09:46:35.200Z,1.90
2022-09-02T09:47:35.219Z,2.10
2022-09-02T09:48:35.234Z,2.10
2022-09-02T09:49:35.250Z,2.10
2022-09-02T09:50:35.269Z,2.10
2022-09-02T09:51:49.776Z,1.90
2022-09-02T09:52:35.303Z,1.90
2022-09-02T09:53:35.325Z,2.00
2022-09-02T09:54:35.341Z,2.10
2022-09-02T09:55:39.783Z,2.10
2022-09-02T09:56:37.300Z,2.00
2022-09-02T09:57:35.815Z,2.10
2022-09-02T09:58:35.411Z,2.00
2022-09-02T09:59:35.443Z,2.10
2022-09-02T10:00:35.508Z,2.10
2022-09-02T10:01:35.469Z,1.90
2022-09-02T10:02:36.527Z,2.10
2022-09-02T10:03:35.506Z,2.20
2022-09-02T10:04:43.887Z,1.90
2022-09-02T10:05:35.541Z,2.20
2022-09-02T10:06:35.562Z,2.10
2022-09-02T10:07:35.585Z,1.90
2022-09-02T10:08:35.599Z,2.00
2022-09-02T10:09:35.616Z,1.90
2022-09-02T10:10:35.635Z,2.10
2022-09-02T10:11:35.655Z,2.00
2022-09-02T10:12:35.679Z,1.90
2022-09-02T10:13:35.693Z,2.00
2022-09-02T10:14:35.711Z,1.80
2022-09-02T10:15:35.729Z,1.80
2022-09-02T10:16:35.855Z,1.90
2022-09-02T10:17:35.768Z,2.10
2022-09-02T10:18:35.786Z,1.90
2022-09-02T10:19:35.803Z,1.90
2022-09-02T10:20:37.149Z,2.10
2022-09-02T10:21:35.842Z,2.10
2022-09-02T10:22:39.441Z,2.10
2022-09-02T10:23:35.882Z,1.80
2022-09-02T10:24:35.904Z,1.80
2022-09-02T10:25:35.920Z,2.00
2022-09-02T10:26:35.942Z,2.00
2022-09-02T10:27:35.962Z,2.00
2022-09-02T10:28:35.978Z,1.90
2022-09-02T10:29:35.999Z,1.90
2022-09-02T10:30:36.017Z,1.90
2022-09-02T10:31:36.081Z,2.00
2022-09-02T10:32:36.059Z,1.90
2022-09-02T10:33:36.076Z,1.90
2022-09-02T10:34:36.093Z,1.90
2022-09-02T10:35:36.121Z,1.60
2022-09-02T10:36:36.133Z,1.80
2022-09-02T10:37:36.258Z,1.60
2022-09-02T10:38:36.172Z,1.80
2022-09-02T10:39:36.194Z,1.80
2022-09-02T10:40:36.295Z,2.00
2022-09-02T10:41:36.295Z,2.00
2022-09-02T10:42:36.253Z,2.00
2022-09-02T10:43:36.274Z,1.70
2022-09-02T10:44:36.296Z,2.20
2022-09-02T10:45:36.314Z,1.70
2022-09-02T10:46:36.362Z,2.00
2022-09-02T10:47:36.355Z,1.80
2022-09-02T10:48:36.376Z,2.10
2022-09-02T10:49:36.410Z,2.10
2022-09-02T10:50:36.416Z,2.20
2022-09-02T10:51:36.438Z,1.80
2022-09-02T10:52:36.463Z,1.90
2022-09-02T10:53:36.477Z,1.80
2022-09-02T10:54:36.497Z,1.90
2022-09-02T10:55:36.518Z,2.00
2022-09-02T10:56:36.539Z,1.90
2022-09-02T10:57:36.556Z,1.90
2022-09-02T10:58:36.582Z,1.80
2022-09-02T10:59:36.600Z,1.80
2022-09-02T11:00:36.661Z,1.60
2022-09-02T11:01:36.887Z,2.20
2022-09-02T11:02:36.661Z,2.10
2022-09-02T11:03:36.697Z,1.70
2022-09-02T11:04:36.711Z,1.80
2022-09-02T11:05:36.722Z,1.60
2022-09-02T11:06:58.790Z,1.70
2022-09-02T11:07:36.763Z,1.80
2022-09-02T11:08:36.785Z,1.70
2022-09-02T11:09:36.807Z,2.10
2022-09-02T11:10:36.822Z,1.80
2022-09-02T11:11:36.842Z,1.60
2022-09-02T11:12:36.872Z,2.00
2022-09-02T11:13:36.880Z,1.50
2022-09-02T11:14:36.916Z,1.60
2022-09-02T11:15:36.927Z,1.80
2022-09-02T11:17:36.989Z,1.90
2022-09-02T11:18:36.992Z,1.80
2022-09-02T11:19:37.023Z,1.70
2022-09-02T11:20:37.029Z,1.80
2022-09-02T11:21:37.049Z,1.70
2022-09-02T11:22:37.067Z,1.90
2022-09-02T11:23:37.088Z,1.90
2022-09-02T11:24:37.114Z,1.80
2022-09-02T11:25:37.126Z,2.00
2022-09-02T11:26:37.148Z,1.70
2022-09-02T11:27:42.540Z,2.00
2022-09-02T11:28:37.196Z,1.70
2022-09-02T11:29:37.212Z,2.00
2022-09-02T11:30:37.311Z,1.90
2022-09-02T11:31:39.181Z,2.00
2022-09-02T11:32:37.268Z,1.70
2022-09-02T11:33:37.292Z,1.90
2022-09-02T11:34:37.309Z,1.90
2022-09-02T11:35:37.326Z,1.80
2022-09-02T11:36:37.350Z,1.90
2022-09-02T11:37:37.367Z,1.90
2022-09-02T11:38:37.391Z,2.00
2022-09-02T11:39:53.961Z,1.70
2022-09-02T11:40:38.933Z,1.70
2022-09-02T11:41:38.014Z,2.00
2022-09-02T11:42:37.476Z,2.00
2022-09-02T11:43:37.494Z,2.00
2022-09-02T11:44:37.510Z,2.00
2022-09-02T11:45:37.659Z,2.10
2022-09-02T11:46:37.698Z,1.90
2022-09-02T11:47:37.786Z,2.10
2022-09-02T11:48:37.591Z,1.80
2022-09-02T11:49:37.612Z,1.90
2022-09-02T11:50:39.497Z,2.10
2022-09-02T11:51:37.655Z,2.20
2022-09-02T11:52:37.672Z,2.10
2022-09-02T11:53:37.689Z,2.00
2022-09-02T11:54:37.719Z,1.90
2022-09-02T11:55:37.728Z,2.10
2022-09-02T11:56:37.748Z,2.10
2022-09-02T11:57:37.770Z,1.90
2022-09-02T11:58:37.793Z,2.00
2022-09-02T11:59:37.829Z,2.10
2022-09-02T12:00:37.830Z,2.20
2022-09-02T12:01:43.897Z,1.90
2022-09-02T12:02:37.872Z,2.40
2022-09-02T12:03:52.074Z,2.20
2022-09-02T12:04:59.268Z,1.80
2022-09-02T12:05:38.217Z,2.00
2022-09-02T12:06:38.220Z,1.70
2022-09-02T12:07:37.975Z,2.00
2022-09-02T12:08:37.993Z,2.10
2022-09-02T12:09:38.039Z,2.00
2022-09-02T12:10:38.037Z,2.10
2022-09-02T12:11:38.054Z,2.10
2022-09-02T12:12:38.077Z,1.90
2022-09-02T12:13:38.217Z,2.20
2022-09-02T12:14:38.235Z,1.90
2022-09-02T12:15:38.133Z,2.00
2022-09-02T12:16:38.158Z,2.00
2022-09-02T12:17:38.225Z,2.10
2022-09-02T12:18:38.195Z,2.10
2022-09-02T12:19:38.216Z,1.90
2022-09-02T12:20:38.235Z,2.10
2022-09-02T12:21:38.259Z,2.00
2022-09-02T12:22:38.273Z,2.30
2022-09-02T12:23:38.303Z,2.00
2022-09-02T12:24:38.417Z,1.90
2022-09-02T12:25:38.347Z,2.30
2022-09-02T12:26:38.361Z,1.90
2022-09-02T12:27:38.384Z,2.20
2022-09-02T12:28:38.400Z,1.80
2022-09-02T12:29:39.811Z,1.90
2022-09-02T12:30:38.439Z,2.10
2022-09-02T12:31:38.583Z,2.40
2022-09-02T12:32:38.481Z,2.10
2022-09-02T12:33:38.502Z,2.30
2022-09-02T12:34:38.523Z,1.90
2022-09-02T12:35:38.636Z,2.10
2022-09-02T12:36:38.565Z,2.20
2022-09-02T12:37:38.583Z,2.30
2022-09-02T12:38:38.605Z,1.90
2022-09-02T12:39:38.625Z,2.20
2022-09-02T12:40:38.749Z,2.30
2022-09-02T12:41:38.667Z,2.20
2022-09-02T12:42:38.688Z,1.90
2022-09-02T12:43:38.706Z,2.20
2022-09-02T12:44:38.733Z,2.50
2022-09-02T12:45:38.753Z,1.90
2022-09-02T12:46:38.828Z,1.90
2022-09-02T12:47:38.804Z,2.20
2022-09-02T12:48:38.814Z,2.00
2022-09-02T12:49:38.833Z,2.00
2022-09-02T12:50:38.852Z,2.80
2022-09-02T12:51:38.872Z,2.30
2022-09-02T12:52:38.897Z,2.00
2022-09-02T12:53:38.913Z,1.70
2022-09-02T12:54:38.933Z,2.00
2022-09-02T12:55:38.956Z,2.10
2022-09-02T12:56:38.975Z,2.00
2022-09-02T12:57:38.995Z,2.30
2022-09-02T12:58:39.119Z,2.40
2022-09-02T12:59:39.036Z,2.50
2022-09-02T13:00:39.058Z,2.00
2022-09-02T13:01:39.262Z,2.20
2022-09-02T13:02:39.096Z,2.30
2022-09-02T13:03:39.123Z,2.20
2022-09-02T13:04:39.147Z,2.60
2022-09-02T13:05:39.158Z,2.30
2022-09-02T13:06:39.177Z,2.20
2022-09-02T13:07:39.199Z,2.20
2022-09-02T13:08:39.217Z,2.40
2022-09-02T13:09:39.239Z,2.60
2022-09-02T13:10:39.263Z,2.50
2022-09-02T13:11:39.277Z,2.60
2022-09-02T13:12:39.300Z,2.50
2022-09-02T13:13:39.321Z,2.40
2022-09-02T13:14:39.341Z,2.40
2022-09-02T13:15:39.429Z,2.30
2022-09-02T13:16:39.376Z,2.80
2022-09-02T13:17:39.396Z,2.80
2022-09-02T13:18:39.420Z,2.50
2022-09-02T13:19:39.436Z,2.20
2022-09-02T13:20:39.454Z,2.60
2022-09-02T13:21:39.479Z,2.30
2022-09-02T13:22:39.493Z,2.00